sensor_id;sensor_type;location;lat;lon;timestamp;pressure;altitude;pressure_sealevel;temperature;humidity
13765;BME280;6953;48.810;9.204;2023-01-05T00:01:48;99129.19;;;12.78;96.65
13765;BME280;6953;48.810;9.204;2023-01-05T00:04:14;99182.94;;;13.07;96.74
13765;BME280;6953;48.810;9.204;2023-01-05T00:06:40;99184.06;;;13.03;96.71
13765;BME280;6953;48.810;9.204;2023-01-05T00:09:07;99205.13;;;13.03;96.84
13765;BME280;6953;48.810;9.204;2023-01-05T00:11:33;99191.97;;;13.03;96.99
13765;BME280;6953;48.810;9.204;2023-01-05T00:14:28;99173.34;;;13.21;96.64
13765;BME280;6953;48.810;9.204;2023-01-05T00:17:15;99104.34;;;12.99;95.85
13765;BME280;6953;48.810;9.204;2023-01-05T00:20:00;99096.81;;;12.93;95.26
13765;BME280;6953;48.810;9.204;2023-01-05T00:22:47;99183.28;;;13.32;95.92
13765;BME280;6953;48.810;9.204;2023-01-05T00:25:16;99108.84;;;12.97;95.77
13765;BME280;6953;48.810;9.204;2023-01-05T00:27:44;99172.31;;;13.39;95.68
13765;BME280;6953;48.810;9.204;2023-01-05T00:30:13;99199.94;;;13.48;94.88
13765;BME280;6953;48.810;9.204;2023-01-05T00:32:40;99110.38;;;13.17;94.44
13765;BME280;6953;48.810;9.204;2023-01-05T00:35:05;99143.16;;;13.42;94.42
13765;BME280;6953;48.810;9.204;2023-01-05T00:37:32;99125.47;;;13.44;93.98
13765;BME280;6953;48.810;9.204;2023-01-05T00:39:58;99013.44;;;12.77;93.82
13765;BME280;6953;48.810;9.204;2023-01-05T00:42:23;99161.91;;;13.67;93.47
13765;BME280;6953;48.810;9.204;2023-01-05T00:44:49;99164.44;;;13.68;93.86
13765;BME280;6953;48.810;9.204;2023-01-05T00:47:14;99127.75;;;13.50;93.40
13765;BME280;6953;48.810;9.204;2023-01-05T00:49:39;99177.56;;;13.70;93.49
13765;BME280;6953;48.810;9.204;2023-01-05T00:52:05;99125.59;;;13.56;93.39
13765;BME280;6953;48.810;9.204;2023-01-05T00:54:30;99155.41;;;13.72;93.46
13765;BME280;6953;48.810;9.204;2023-01-05T00:56:56;99151.53;;;13.64;93.70
13765;BME280;6953;48.810;9.204;2023-01-05T00:59:21;99153.06;;;13.68;94.35
13765;BME280;6953;48.810;9.204;2023-01-05T01:01:48;99157.22;;;13.72;93.82
13765;BME280;6953;48.810;9.204;2023-01-05T01:04:14;99192.34;;;13.72;93.92
13765;BME280;6953;48.810;9.204;2023-01-05T01:06:40;99167.84;;;13.70;94.16
13765;BME280;6953;48.810;9.204;2023-01-05T01:09:06;99159.94;;;13.70;94.49
13765;BME280;6953;48.810;9.204;2023-01-05T01:11:32;99149.16;;;13.59;94.51
13765;BME280;6953;48.810;9.204;2023-01-05T01:13:57;99195.06;;;13.71;94.44
13765;BME280;6953;48.810;9.204;2023-01-05T01:16:22;99170.22;;;13.75;94.10
13765;BME280;6953;48.810;9.204;2023-01-05T01:18:48;99109.22;;;13.36;94.53
13765;BME280;6953;48.810;9.204;2023-01-05T01:21:14;99174.81;;;13.71;94.89
13765;BME280;6953;48.810;9.204;2023-01-05T01:23:39;99152.72;;;13.74;94.83
13765;BME280;6953;48.810;9.204;2023-01-05T01:26:11;99127.97;;;13.61;94.46
13765;BME280;6953;48.810;9.204;2023-01-05T01:28:37;99153.41;;;13.47;95.26
13765;BME280;6953;48.810;9.204;2023-01-05T01:31:03;98921.41;;;12.14;95.51
13765;BME280;6953;48.810;9.204;2023-01-05T01:33:29;99146.38;;;13.47;96.15
13765;BME280;6953;48.810;9.204;2023-01-05T01:35:55;99095.16;;;13.22;96.04
13765;BME280;6953;48.810;9.204;2023-01-05T01:38:20;99087.91;;;13.25;95.35
13765;BME280;6953;48.810;9.204;2023-01-05T01:40:46;99149.00;;;13.62;96.11
13765;BME280;6953;48.810;9.204;2023-01-05T01:43:13;99183.94;;;13.66;95.36
13765;BME280;6953;48.810;9.204;2023-01-05T01:45:39;99120.19;;;13.44;95.84
13765;BME280;6953;48.810;9.204;2023-01-05T01:48:05;99116.50;;;13.47;95.63
13765;BME280;6953;48.810;9.204;2023-01-05T01:50:44;99181.78;;;13.72;95.23
13765;BME280;6953;48.810;9.204;2023-01-05T01:53:17;99147.44;;;13.74;95.29
13765;BME280;6953;48.810;9.204;2023-01-05T01:55:45;99082.19;;;13.33;95.34
13765;BME280;6953;48.810;9.204;2023-01-05T01:58:15;98940.06;;;12.55;94.87
13765;BME280;6953;48.810;9.204;2023-01-05T02:00:42;99081.69;;;13.42;94.81
13765;BME280;6953;48.810;9.204;2023-01-05T02:03:08;99153.09;;;13.82;94.91
13765;BME280;6953;48.810;9.204;2023-01-05T02:05:35;98941.19;;;12.51;95.29
13765;BME280;6953;48.810;9.204;2023-01-05T02:08:02;99143.88;;;13.75;95.45
13765;BME280;6953;48.810;9.204;2023-01-05T02:16:00;99133.63;;;13.84;94.93
13765;BME280;6953;48.810;9.204;2023-01-05T02:21:45;99126.53;;;13.85;94.94
13765;BME280;6953;48.810;9.204;2023-01-05T02:27:37;99122.47;;;13.79;95.27
13765;BME280;6953;48.810;9.204;2023-01-05T02:30:14;99158.47;;;13.80;95.61
13765;BME280;6953;48.810;9.204;2023-01-05T02:35:50;99101.47;;;13.78;95.39
13765;BME280;6953;48.810;9.204;2023-01-05T02:38:26;98998.19;;;13.13;95.29
13765;BME280;6953;48.810;9.204;2023-01-05T02:41:06;99111.38;;;13.88;95.35
13765;BME280;6953;48.810;9.204;2023-01-05T02:43:35;99105.72;;;13.80;95.64
13765;BME280;6953;48.810;9.204;2023-01-05T02:46:00;99108.34;;;13.80;96.27
13765;BME280;6953;48.810;9.204;2023-01-05T02:48:26;98893.56;;;12.56;95.65
13765;BME280;6953;48.810;9.204;2023-01-05T02:50:59;99115.63;;;13.91;95.83
13765;BME280;6953;48.810;9.204;2023-01-05T02:53:31;99057.88;;;13.57;95.61
13765;BME280;6953;48.810;9.204;2023-01-05T02:58:37;99060.09;;;13.64;95.88
13765;BME280;6953;48.810;9.204;2023-01-05T03:01:11;98940.19;;;12.99;95.94
13765;BME280;6953;48.810;9.204;2023-01-05T03:04:09;99112.59;;;13.97;96.36
13765;BME280;6953;48.810;9.204;2023-01-05T03:06:47;99119.59;;;13.98;96.19
13765;BME280;6953;48.810;9.204;2023-01-05T03:09:15;99098.63;;;13.67;96.20
13765;BME280;6953;48.810;9.204;2023-01-05T03:11:49;99146.72;;;14.00;96.20
13765;BME280;6953;48.810;9.204;2023-01-05T03:17:38;99110.56;;;14.02;96.08
13765;BME280;6953;48.810;9.204;2023-01-05T03:20:06;98956.03;;;13.13;95.95
13765;BME280;6953;48.810;9.204;2023-01-05T03:22:34;99102.94;;;13.97;96.17
13765;BME280;6953;48.810;9.204;2023-01-05T03:25:21;99126.31;;;14.03;96.40
13765;BME280;6953;48.810;9.204;2023-01-05T03:28:09;98953.69;;;13.08;96.18
13765;BME280;6953;48.810;9.204;2023-01-05T03:31:02;99111.00;;;13.80;96.54
13765;BME280;6953;48.810;9.204;2023-01-05T03:34:08;99144.91;;;13.86;97.45
13765;BME280;6953;48.810;9.204;2023-01-05T03:37:01;99127.94;;;13.76;97.78
13765;BME280;6953;48.810;9.204;2023-01-05T03:39:29;99112.94;;;13.77;97.55
13765;BME280;6953;48.810;9.204;2023-01-05T03:41:55;99113.19;;;13.88;97.25
13765;BME280;6953;48.810;9.204;2023-01-05T03:44:21;99090.72;;;13.81;97.23
13765;BME280;6953;48.810;9.204;2023-01-05T03:46:46;98943.28;;;12.91;96.91
13765;BME280;6953;48.810;9.204;2023-01-05T03:49:12;99097.34;;;13.88;97.19
13765;BME280;6953;48.810;9.204;2023-01-05T03:51:38;99036.91;;;13.55;97.00
13765;BME280;6953;48.810;9.204;2023-01-05T03:54:03;98977.97;;;13.13;97.25
13765;BME280;6953;48.810;9.204;2023-01-05T03:56:28;99117.88;;;13.83;97.31
13765;BME280;6953;48.810;9.204;2023-01-05T03:58:54;99054.84;;;13.64;97.77
13765;BME280;6953;48.810;9.204;2023-01-05T04:01:20;99098.19;;;13.88;97.55
13765;BME280;6953;48.810;9.204;2023-01-05T04:03:45;99123.09;;;13.98;98.00
13765;BME280;6953;48.810;9.204;2023-01-05T04:06:11;99117.63;;;14.01;97.94
13765;BME280;6953;48.810;9.204;2023-01-05T04:08:36;99119.75;;;13.81;98.14
13765;BME280;6953;48.810;9.204;2023-01-05T04:11:16;99057.19;;;13.69;98.36
13765;BME280;6953;48.810;9.204;2023-01-05T04:13:42;99064.09;;;13.56;98.37
13765;BME280;6953;48.810;9.204;2023-01-05T04:16:08;99113.03;;;13.75;99.69
13765;BME280;6953;48.810;9.204;2023-01-05T04:18:33;99131.69;;;13.72;100.00
13765;BME280;6953;48.810;9.204;2023-01-05T04:20:59;99116.22;;;13.66;100.00
13765;BME280;6953;48.810;9.204;2023-01-05T04:23:24;99123.56;;;13.61;100.00
13765;BME280;6953;48.810;9.204;2023-01-05T04:25:49;99111.75;;;13.53;100.00
13765;BME280;6953;48.810;9.204;2023-01-05T04:28:15;99123.47;;;13.48;100.00
13765;BME280;6953;48.810;9.204;2023-01-05T04:30:43;99058.78;;;13.13;100.00
13765;BME280;6953;48.810;9.204;2023-01-05T04:33:09;99140.78;;;13.38;100.00
13765;BME280;6953;48.810;9.204;2023-01-05T04:35:35;99084.44;;;13.25;100.00
13765;BME280;6953;48.810;9.204;2023-01-05T04:38:00;99012.59;;;12.92;100.00
13765;BME280;6953;48.810;9.204;2023-01-05T04:40:26;98912.94;;;12.40;100.00
13765;BME280;6953;48.810;9.204;2023-01-05T04:42:51;99092.44;;;13.52;100.00
13765;BME280;6953;48.810;9.204;2023-01-05T04:45:16;99119.22;;;13.60;100.00
13765;BME280;6953;48.810;9.204;2023-01-05T04:47:42;99118.97;;;13.49;100.00
13765;BME280;6953;48.810;9.204;2023-01-05T04:50:08;99086.31;;;13.23;100.00
13765;BME280;6953;48.810;9.204;2023-01-05T04:52:33;99070.19;;;12.98;100.00
13765;BME280;6953;48.810;9.204;2023-01-05T04:54:59;98968.28;;;12.38;100.00
13765;BME280;6953;48.810;9.204;2023-01-05T04:57:24;99132.03;;;13.22;100.00
13765;BME280;6953;48.810;9.204;2023-01-05T04:59:50;99130.91;;;13.26;100.00
13765;BME280;6953;48.810;9.204;2023-01-05T05:02:15;99121.91;;;13.30;100.00
13765;BME280;6953;48.810;9.204;2023-01-05T05:04:40;99094.13;;;13.09;100.00
13765;BME280;6953;48.810;9.204;2023-01-05T05:07:05;99131.25;;;13.35;100.00
13765;BME280;6953;48.810;9.204;2023-01-05T05:09:31;99077.31;;;13.11;100.00
13765;BME280;6953;48.810;9.204;2023-01-05T05:11:56;99142.13;;;13.45;100.00
13765;BME280;6953;48.810;9.204;2023-01-05T05:14:22;99149.44;;;13.40;100.00
13765;BME280;6953;48.810;9.204;2023-01-05T05:16:47;99143.91;;;13.44;100.00
13765;BME280;6953;48.810;9.204;2023-01-05T05:19:12;99041.28;;;12.81;100.00
13765;BME280;6953;48.810;9.204;2023-01-05T05:21:38;99162.25;;;13.46;100.00
13765;BME280;6953;48.810;9.204;2023-01-05T05:24:03;99057.50;;;12.89;100.00
13765;BME280;6953;48.810;9.204;2023-01-05T05:26:29;98942.66;;;12.11;100.00
13765;BME280;6953;48.810;9.204;2023-01-05T05:28:57;99136.19;;;13.26;100.00
13765;BME280;6953;48.810;9.204;2023-01-05T05:31:23;99158.41;;;13.22;100.00
13765;BME280;6953;48.810;9.204;2023-01-05T05:33:48;99166.63;;;13.16;100.00
13765;BME280;6953;48.810;9.204;2023-01-05T05:36:14;99180.84;;;13.13;100.00
13765;BME280;6953;48.810;9.204;2023-01-05T05:38:39;99174.03;;;13.09;100.00
13765;BME280;6953;48.810;9.204;2023-01-05T05:41:04;99191.41;;;12.96;100.00
13765;BME280;6953;48.810;9.204;2023-01-05T05:43:30;99178.97;;;13.00;100.00
13765;BME280;6953;48.810;9.204;2023-01-05T05:45:55;99204.69;;;12.95;100.00
13765;BME280;6953;48.810;9.204;2023-01-05T05:48:20;99164.91;;;12.84;100.00
13765;BME280;6953;48.810;9.204;2023-01-05T05:50:46;99184.84;;;12.88;100.00
13765;BME280;6953;48.810;9.204;2023-01-05T05:53:11;99190.25;;;12.85;100.00
13765;BME280;6953;48.810;9.204;2023-01-05T05:55:37;98957.28;;;11.35;100.00
13765;BME280;6953;48.810;9.204;2023-01-05T05:58:02;99205.91;;;12.72;100.00
13765;BME280;6953;48.810;9.204;2023-01-05T06:00:27;99164.03;;;12.51;100.00
13765;BME280;6953;48.810;9.204;2023-01-05T06:02:53;99213.38;;;12.80;100.00
13765;BME280;6953;48.810;9.204;2023-01-05T06:05:18;99223.16;;;12.78;100.00
13765;BME280;6953;48.810;9.204;2023-01-05T06:07:43;99189.31;;;12.70;100.00
13765;BME280;6953;48.810;9.204;2023-01-05T06:10:09;99217.94;;;12.93;100.00
13765;BME280;6953;48.810;9.204;2023-01-05T06:12:34;99241.66;;;13.09;100.00
13765;BME280;6953;48.810;9.204;2023-01-05T06:14:59;99244.66;;;13.18;100.00
13765;BME280;6953;48.810;9.204;2023-01-05T06:17:25;99237.50;;;13.20;100.00
13765;BME280;6953;48.810;9.204;2023-01-05T06:19:50;99239.38;;;13.03;100.00
13765;BME280;6953;48.810;9.204;2023-01-05T06:22:15;99231.06;;;13.10;100.00
13765;BME280;6953;48.810;9.204;2023-01-05T06:24:41;99200.44;;;12.75;100.00
13765;BME280;6953;48.810;9.204;2023-01-05T06:27:06;99278.28;;;12.81;100.00
13765;BME280;6953;48.810;9.204;2023-01-05T06:29:32;99265.44;;;12.75;100.00
13765;BME280;6953;48.810;9.204;2023-01-05T06:31:57;99266.13;;;12.61;100.00
13765;BME280;6953;48.810;9.204;2023-01-05T06:34:22;99047.13;;;11.24;100.00
13765;BME280;6953;48.810;9.204;2023-01-05T06:36:48;99297.75;;;12.44;100.00
13765;BME280;6953;48.810;9.204;2023-01-05T06:39:13;99261.44;;;12.17;100.00
13765;BME280;6953;48.810;9.204;2023-01-05T06:41:38;99211.06;;;11.91;100.00
13765;BME280;6953;48.810;9.204;2023-01-05T06:44:04;99012.44;;;10.65;100.00
13765;BME280;6953;48.810;9.204;2023-01-05T06:46:30;99296.97;;;12.26;100.00
13765;BME280;6953;48.810;9.204;2023-01-05T06:48:55;99296.03;;;12.27;100.00
13765;BME280;6953;48.810;9.204;2023-01-05T06:51:21;99295.31;;;12.23;100.00
13765;BME280;6953;48.810;9.204;2023-01-05T06:53:46;99080.25;;;10.91;100.00
13765;BME280;6953;48.810;9.204;2023-01-05T06:56:12;99065.91;;;10.81;100.00
13765;BME280;6953;48.810;9.204;2023-01-05T06:58:37;99287.88;;;11.97;100.00
13765;BME280;6953;48.810;9.204;2023-01-05T07:01:03;99071.06;;;10.83;100.00
13765;BME280;6953;48.810;9.204;2023-01-05T07:03:28;99130.91;;;11.12;100.00
13765;BME280;6953;48.810;9.204;2023-01-05T07:05:53;99170.97;;;11.34;100.00
13765;BME280;6953;48.810;9.204;2023-01-05T07:08:19;99083.91;;;10.89;100.00
13765;BME280;6953;48.810;9.204;2023-01-05T07:10:44;99299.50;;;12.10;100.00
13765;BME280;6953;48.810;9.204;2023-01-05T07:13:09;99321.03;;;12.18;100.00
13765;BME280;6953;48.810;9.204;2023-01-05T07:15:35;99078.00;;;10.84;100.00
13765;BME280;6953;48.810;9.204;2023-01-05T07:18:00;99316.84;;;12.14;100.00
13765;BME280;6953;48.810;9.204;2023-01-05T07:20:25;99271.63;;;11.89;100.00
13765;BME280;6953;48.810;9.204;2023-01-05T07:22:51;99315.28;;;12.10;100.00
13765;BME280;6953;48.810;9.204;2023-01-05T07:25:16;99122.25;;;10.91;100.00
13765;BME280;6953;48.810;9.204;2023-01-05T07:27:41;99325.09;;;12.07;100.00
13765;BME280;6953;48.810;9.204;2023-01-05T07:30:07;99320.53;;;12.10;100.00
13765;BME280;6953;48.810;9.204;2023-01-05T07:32:33;99319.47;;;12.14;100.00
13765;BME280;6953;48.810;9.204;2023-01-05T07:34:58;99315.81;;;12.17;100.00
13765;BME280;6953;48.810;9.204;2023-01-05T07:37:24;99315.00;;;12.16;100.00
13765;BME280;6953;48.810;9.204;2023-01-05T07:39:49;99083.75;;;10.73;100.00
13765;BME280;6953;48.810;9.204;2023-01-05T07:42:14;99316.16;;;12.11;100.00
13765;BME280;6953;48.810;9.204;2023-01-05T07:44:40;99324.59;;;12.17;100.00
13765;BME280;6953;48.810;9.204;2023-01-05T07:47:05;99356.84;;;12.21;100.00
13765;BME280;6953;48.810;9.204;2023-01-05T07:49:30;99086.75;;;10.84;100.00
13765;BME280;6953;48.810;9.204;2023-01-05T07:51:56;99331.81;;;12.31;100.00
13765;BME280;6953;48.810;9.204;2023-01-05T07:54:21;99336.03;;;12.33;100.00
13765;BME280;6953;48.810;9.204;2023-01-05T07:56:47;99337.84;;;12.33;100.00
13765;BME280;6953;48.810;9.204;2023-01-05T07:59:12;99327.66;;;12.25;100.00
13765;BME280;6953;48.810;9.204;2023-01-05T08:01:37;99344.19;;;12.29;100.00
13765;BME280;6953;48.810;9.204;2023-01-05T08:04:03;99127.19;;;10.99;100.00
13765;BME280;6953;48.810;9.204;2023-01-05T08:06:28;99347.66;;;12.29;100.00
13765;BME280;6953;48.810;9.204;2023-01-05T08:08:54;99356.94;;;12.19;100.00
13765;BME280;6953;48.810;9.204;2023-01-05T08:11:20;99380.47;;;12.22;100.00
13765;BME280;6953;48.810;9.204;2023-01-05T08:13:46;99369.72;;;12.08;100.00
13765;BME280;6953;48.810;9.204;2023-01-05T08:16:24;99186.06;;;11.12;100.00
13765;BME280;6953;48.810;9.204;2023-01-05T08:18:49;99359.41;;;12.22;100.00
13765;BME280;6953;48.810;9.204;2023-01-05T08:21:14;99121.66;;;10.86;100.00
13765;BME280;6953;48.810;9.204;2023-01-05T08:23:40;99379.19;;;12.47;100.00
13765;BME280;6953;48.810;9.204;2023-01-05T08:26:08;99375.09;;;12.76;100.00
13765;BME280;6953;48.810;9.204;2023-01-05T08:28:34;99380.75;;;13.02;100.00
13765;BME280;6953;48.810;9.204;2023-01-05T08:31:01;99171.47;;;11.94;98.48
13765;BME280;6953;48.810;9.204;2023-01-05T08:33:27;99289.91;;;12.77;98.00
13765;BME280;6953;48.810;9.204;2023-01-05T08:35:52;99214.63;;;12.41;97.53
13765;BME280;6953;48.810;9.204;2023-01-05T08:38:22;99281.69;;;12.83;96.65
13765;BME280;6953;48.810;9.204;2023-01-05T08:40:48;99398.63;;;13.62;96.53
13765;BME280;6953;48.810;9.204;2023-01-05T08:43:13;99398.97;;;13.71;96.15
13765;BME280;6953;48.810;9.204;2023-01-05T08:45:39;99393.63;;;13.73;95.69
13765;BME280;6953;48.810;9.204;2023-01-05T08:48:04;99395.44;;;13.88;94.94
13765;BME280;6953;48.810;9.204;2023-01-05T08:50:30;99413.63;;;13.92;94.92
13765;BME280;6953;48.810;9.204;2023-01-05T08:52:56;99400.44;;;13.92;94.47
13765;BME280;6953;48.810;9.204;2023-01-05T08:55:21;99389.06;;;13.92;94.15
13765;BME280;6953;48.810;9.204;2023-01-05T08:57:47;99421.91;;;14.02;93.34
13765;BME280;6953;48.810;9.204;2023-01-05T09:00:13;99334.06;;;13.69;93.09
13765;BME280;6953;48.810;9.204;2023-01-05T09:02:41;99335.00;;;13.52;91.26
13765;BME280;6953;48.810;9.204;2023-01-05T09:05:06;99253.06;;;13.09;90.92
13765;BME280;6953;48.810;9.204;2023-01-05T09:07:32;99436.03;;;14.01;90.20
13765;BME280;6953;48.810;9.204;2023-01-05T09:09:57;99428.69;;;13.90;88.27
13765;BME280;6953;48.810;9.204;2023-01-05T09:12:23;99427.69;;;13.93;88.50
13765;BME280;6953;48.810;9.204;2023-01-05T09:14:48;99213.19;;;12.67;87.21
13765;BME280;6953;48.810;9.204;2023-01-05T09:17:14;99414.34;;;13.96;86.77
13765;BME280;6953;48.810;9.204;2023-01-05T09:19:39;99449.38;;;14.15;85.63
13765;BME280;6953;48.810;9.204;2023-01-05T09:22:05;99428.78;;;14.21;83.66
13765;BME280;6953;48.810;9.204;2023-01-05T09:24:31;99431.25;;;14.24;82.84
13765;BME280;6953;48.810;9.204;2023-01-05T09:26:56;99224.31;;;13.05;82.92
13765;BME280;6953;48.810;9.204;2023-01-05T09:29:22;99377.81;;;14.04;81.88
13765;BME280;6953;48.810;9.204;2023-01-05T09:31:47;99234.09;;;13.18;80.27
13765;BME280;6953;48.810;9.204;2023-01-05T09:34:12;99354.25;;;13.85;79.04
13765;BME280;6953;48.810;9.204;2023-01-05T09:36:38;99438.63;;;14.33;77.96
13765;BME280;6953;48.810;9.204;2023-01-05T09:39:04;99316.09;;;13.60;77.12
13765;BME280;6953;48.810;9.204;2023-01-05T09:41:36;99364.44;;;14.07;76.93
13765;BME280;6953;48.810;9.204;2023-01-05T09:44:30;99444.84;;;14.63;76.87
13765;BME280;6953;48.810;9.204;2023-01-05T09:47:15;99486.22;;;14.78;76.56
13765;BME280;6953;48.810;9.204;2023-01-05T09:49:43;99453.16;;;14.71;75.99
13765;BME280;6953;48.810;9.204;2023-01-05T09:52:11;99476.59;;;14.77;75.26
13765;BME280;6953;48.810;9.204;2023-01-05T09:54:38;99296.91;;;13.73;75.16
13765;BME280;6953;48.810;9.204;2023-01-05T09:57:10;99411.00;;;14.54;74.86
13765;BME280;6953;48.810;9.204;2023-01-05T09:59:42;99464.19;;;14.93;74.88
13765;BME280;6953;48.810;9.204;2023-01-05T10:02:26;99467.38;;;14.84;74.76
13765;BME280;6953;48.810;9.204;2023-01-05T10:04:54;99474.38;;;14.85;75.25
13765;BME280;6953;48.810;9.204;2023-01-05T10:07:52;99467.72;;;14.78;74.48
13765;BME280;6953;48.810;9.204;2023-01-05T10:13:03;99473.34;;;14.72;75.74
13765;BME280;6953;48.810;9.204;2023-01-05T10:15:52;99400.13;;;14.45;75.38
13765;BME280;6953;48.810;9.204;2023-01-05T10:18:22;99498.22;;;14.99;75.07
13765;BME280;6953;48.810;9.204;2023-01-05T10:28:45;99231.13;;;13.86;74.32
13765;BME280;6953;48.810;9.204;2023-01-05T10:31:22;99468.16;;;15.15;74.04
13765;BME280;6953;48.810;9.204;2023-01-05T10:33:59;99466.34;;;15.16;74.08
13765;BME280;6953;48.810;9.204;2023-01-05T10:36:41;99463.88;;;15.13;73.91
13765;BME280;6953;48.810;9.204;2023-01-05T10:39:31;99274.75;;;14.07;74.04
13765;BME280;6953;48.810;9.204;2023-01-05T10:45:12;99457.13;;;15.23;73.05
13765;BME280;6953;48.810;9.204;2023-01-05T10:47:39;99383.78;;;14.83;72.75
13765;BME280;6953;48.810;9.204;2023-01-05T10:52:51;99458.13;;;15.20;71.55
13765;BME280;6953;48.810;9.204;2023-01-05T10:55:18;99323.25;;;14.35;71.97
13765;BME280;6953;48.810;9.204;2023-01-05T10:57:45;99415.78;;;14.92;71.98
13765;BME280;6953;48.810;9.204;2023-01-05T11:02:42;99456.19;;;15.24;71.66
13765;BME280;6953;48.810;9.204;2023-01-05T11:07:53;99458.84;;;15.24;71.48
13765;BME280;6953;48.810;9.204;2023-01-05T11:10:30;99255.50;;;14.05;70.95
13765;BME280;6953;48.810;9.204;2023-01-05T11:13:06;99471.34;;;15.20;71.40
13765;BME280;6953;48.810;9.204;2023-01-05T11:15:44;99252.03;;;14.04;70.50
13765;BME280;6953;48.810;9.204;2023-01-05T11:21:22;99477.41;;;15.22;71.42
13765;BME280;6953;48.810;9.204;2023-01-05T11:23:53;99448.47;;;15.05;71.20
13765;BME280;6953;48.810;9.204;2023-01-05T11:26:26;99370.75;;;14.51;70.77
13765;BME280;6953;48.810;9.204;2023-01-05T11:29:08;99407.25;;;14.73;71.21
13765;BME280;6953;48.810;9.204;2023-01-05T11:31:49;99366.41;;;14.50;71.26
13765;BME280;6953;48.810;9.204;2023-01-05T11:34:29;99482.38;;;15.13;71.43
13765;BME280;6953;48.810;9.204;2023-01-05T11:37:21;99404.22;;;14.79;70.69
13765;BME280;6953;48.810;9.204;2023-01-05T11:42:33;99463.34;;;15.22;70.22
13765;BME280;6953;48.810;9.204;2023-01-05T11:45:05;99478.81;;;15.14;70.46
13765;BME280;6953;48.810;9.204;2023-01-05T11:47:46;99452.81;;;15.06;70.17
13765;BME280;6953;48.810;9.204;2023-01-05T11:52:40;99404.75;;;14.86;70.37
13765;BME280;6953;48.810;9.204;2023-01-05T11:55:39;99465.75;;;15.11;69.73
13765;BME280;6953;48.810;9.204;2023-01-05T11:58:25;99292.94;;;14.11;70.35
13765;BME280;6953;48.810;9.204;2023-01-05T12:17:29;99447.25;;;15.11;70.33
13765;BME280;6953;48.810;9.204;2023-01-05T12:22:32;99249.19;;;14.07;69.92
13765;BME280;6953;48.810;9.204;2023-01-05T12:27:57;99394.41;;;15.11;69.72
13765;BME280;6953;48.810;9.204;2023-01-05T12:30:32;99477.00;;;15.30;69.90
13765;BME280;6953;48.810;9.204;2023-01-05T12:33:13;99469.41;;;15.24;70.21
13765;BME280;6953;48.810;9.204;2023-01-05T12:35:49;99465.91;;;15.23;70.19
13765;BME280;6953;48.810;9.204;2023-01-05T12:38:25;99441.41;;;15.06;70.54
13765;BME280;6953;48.810;9.204;2023-01-05T12:41:18;99470.88;;;15.29;70.48
13765;BME280;6953;48.810;9.204;2023-01-05T12:49:18;99267.53;;;13.95;70.76
13765;BME280;6953;48.810;9.204;2023-01-05T12:52:02;99472.41;;;15.18;70.98
13765;BME280;6953;48.810;9.204;2023-01-05T12:54:40;99454.44;;;15.09;70.94
13765;BME280;6953;48.810;9.204;2023-01-05T12:57:12;99308.00;;;14.25;71.32
13765;BME280;6953;48.810;9.204;2023-01-05T12:59:55;99460.06;;;15.18;71.21
13765;BME280;6953;48.810;9.204;2023-01-05T13:02:31;99492.88;;;15.14;71.07
13765;BME280;6953;48.810;9.204;2023-01-05T13:07:53;99457.38;;;14.89;71.80
13765;BME280;6953;48.810;9.204;2023-01-05T13:10:57;99471.81;;;15.13;71.69
13765;BME280;6953;48.810;9.204;2023-01-05T13:13:34;99237.84;;;13.76;72.07
13765;BME280;6953;48.810;9.204;2023-01-05T13:16:11;99460.69;;;15.08;71.54
13765;BME280;6953;48.810;9.204;2023-01-05T13:18:41;99466.22;;;15.03;71.81
13765;BME280;6953;48.810;9.204;2023-01-05T13:21:10;99291.28;;;13.95;72.21
13765;BME280;6953;48.810;9.204;2023-01-05T13:23:50;99285.69;;;13.85;71.81
13765;BME280;6953;48.810;9.204;2023-01-05T13:26:19;99389.06;;;14.38;72.36
13765;BME280;6953;48.810;9.204;2023-01-05T13:28:46;99467.13;;;14.88;72.51
13765;BME280;6953;48.810;9.204;2023-01-05T13:31:43;99321.03;;;14.12;72.90
13765;BME280;6953;48.810;9.204;2023-01-05T13:37:18;99465.72;;;14.97;71.71
13765;BME280;6953;48.810;9.204;2023-01-05T13:39:55;99267.38;;;13.82;72.01
13765;BME280;6953;48.810;9.204;2023-01-05T13:45:22;99273.66;;;13.95;71.41
13765;BME280;6953;48.810;9.204;2023-01-05T13:50:43;99450.63;;;14.69;71.58
13765;BME280;6953;48.810;9.204;2023-01-05T13:53:19;99481.00;;;14.92;71.79
13765;BME280;6953;48.810;9.204;2023-01-05T13:55:50;99303.59;;;13.79;72.19
13765;BME280;6953;48.810;9.204;2023-01-05T14:00:51;99413.31;;;14.45;73.09
13765;BME280;6953;48.810;9.204;2023-01-05T14:03:21;99261.66;;;13.59;72.91
13765;BME280;6953;48.810;9.204;2023-01-05T14:05:54;99484.84;;;14.86;72.85
13765;BME280;6953;48.810;9.204;2023-01-05T14:08:31;99487.59;;;14.69;71.86
13765;BME280;6953;48.810;9.204;2023-01-05T14:16:51;99497.00;;;14.89;71.91
13765;BME280;6953;48.810;9.204;2023-01-05T14:19:47;99402.22;;;14.24;72.78
13765;BME280;6953;48.810;9.204;2023-01-05T14:22:32;99472.34;;;14.59;73.07
13765;BME280;6953;48.810;9.204;2023-01-05T14:33:47;99516.41;;;14.43;75.10
13765;BME280;6953;48.810;9.204;2023-01-05T14:41:36;99287.16;;;13.12;75.26
13765;BME280;6953;48.810;9.204;2023-01-05T14:44:05;99274.47;;;13.03;75.97
13765;BME280;6953;48.810;9.204;2023-01-05T14:46:47;99532.81;;;14.48;75.50
13765;BME280;6953;48.810;9.204;2023-01-05T14:49:53;99516.03;;;14.49;75.46
13765;BME280;6953;48.810;9.204;2023-01-05T14:55:39;99514.69;;;14.42;75.88
13765;BME280;6953;48.810;9.204;2023-01-05T15:01:04;99439.69;;;13.98;75.49
13765;BME280;6953;48.810;9.204;2023-01-05T15:04:03;99524.16;;;14.46;76.17
13765;BME280;6953;48.810;9.204;2023-01-05T15:12:15;99540.25;;;14.42;75.77
13765;BME280;6953;48.810;9.204;2023-01-05T15:15:02;99341.09;;;13.38;76.25
13765;BME280;6953;48.810;9.204;2023-01-05T15:29:45;99510.22;;;14.12;76.35
13765;BME280;6953;48.810;9.204;2023-01-05T15:32:21;99531.94;;;14.17;76.39
13765;BME280;6953;48.810;9.204;2023-01-05T15:37:19;99375.16;;;13.25;76.22
13765;BME280;6953;48.810;9.204;2023-01-05T15:39:51;99466.47;;;13.75;76.67
13765;BME280;6953;48.810;9.204;2023-01-05T15:42:27;99512.38;;;14.04;76.69